TimeWEST,TemperatureF,Dew PointF,Humidity,Sea Level PressureIn,VisibilityMPH,Wind Direction,Wind SpeedMPH,Gust SpeedMPH,PrecipitationIn,Events,Conditions,WindDirDegrees,DateUTC
12:00 AM,68.0,59.0,73,30.12,-9999.0,SW,8.1,-,N/A,,Clear,220,2013-10-20 23:00:00
12:30 AM,68.0,59.0,73,30.12,-9999.0,SW,9.2,-,N/A,,Unknown,220,2013-10-20 23:30:00
12:45 AM,67,60,71,30.07,6,SW,6.9,,,,Clear,220,2013-10-20 23:45:00
1:00 AM,68.0,59.0,73,30.12,-9999.0,SW,6.9,-,N/A,,Clear,220,2013-10-21 00:00:00
1:30 AM,68.0,59.0,73,30.09,-9999.0,SSW,6.9,-,N/A,,Unknown,210,2013-10-21 00:30:00
2:00 AM,68.0,59.0,73,30.09,-9999.0,SW,4.6,-,N/A,,Unknown,230,2013-10-21 01:00:00
2:30 AM,64.4,57.2,77,30.09,-9999.0,West,2.3,-,N/A,,Unknown,270,2013-10-21 01:30:00
3:00 AM,62.6,57.2,82,30.09,-9999.0,SW,3.5,-,N/A,,Unknown,220,2013-10-21 02:00:00
3:30 AM,62.6,55.4,77,30.09,-9999.0,WSW,4.6,-,N/A,,Unknown,240,2013-10-21 02:30:00
4:00 AM,62,57,79,30.06,3,WSW,3.5,,,,,250,2013-10-21 03:00:00
4:00 AM,62.6,57.2,82,30.09,-9999.0,West,3.5,-,N/A,,Unknown,260,2013-10-21 03:00:00
4:30 AM,62.6,57.2,82,30.09,-9999.0,West,1.2,-,N/A,,Unknown,270,2013-10-21 03:30:00
5:00 AM,64.4,57.2,77,30.06,3.1,SSW,4.6,-,N/A,,Unknown,210,2013-10-21 04:00:00
5:30 AM,64.4,55.4,73,30.06,3.1,SSW,2.3,-,N/A,,Unknown,210,2013-10-21 04:30:00
6:00 AM,62.6,55.4,77,30.06,3.1,Variable,2.3,-,N/A,,Unknown,0,2013-10-21 05:00:00
6:30 AM,60.8,53.6,77,30.06,3.7,ESE,3.5,-,N/A,,Unknown,110,2013-10-21 05:30:00
7:00 AM,60,54,74,30.05,4,East,4.6,,,,Clear,90,2013-10-21 06:00:00
7:00 AM,60.8,53.6,77,30.06,3.7,East,5.8,-,N/A,,Unknown,90,2013-10-21 06:00:00
7:30 AM,59.0,53.6,82,30.06,3.7,East,4.6,-,N/A,,Unknown,90,2013-10-21 06:30:00
8:00 AM,59.0,51.8,77,30.06,4.3,NNE,4.6,-,N/A,,Unknown,30,2013-10-21 07:00:00
8:30 AM,60.8,51.8,72,30.06,5.0,ENE,3.5,-,N/A,,Unknown,70,2013-10-21 07:30:00
9:00 AM,66.2,51.8,60,30.09,4.3,East,3.5,-,N/A,,Unknown,90,2013-10-21 08:00:00
9:30 AM,69.8,53.6,56,30.09,3.7,Calm,Calm,-,N/A,,Unknown,0,2013-10-21 08:30:00
9:49 AM,70,55,49,30.06,5,ESE,2.3,,,,Clear,120,2013-10-21 08:49:00
10:00 AM,69.8,55.4,60,30.09,5.0,Variable,2.3,-,N/A,,Unknown,0,2013-10-21 09:00:00
10:30 AM,71.6,55.4,57,30.12,-9999.0,SSW,3.5,-,N/A,,Clear,210,2013-10-21 09:30:00
11:00 AM,71.6,57.2,60,30.12,-9999.0,West,3.5,-,N/A,,Clear,260,2013-10-21 10:00:00
11:30 AM,73.4,57.2,57,30.12,-9999.0,West,4.6,-,N/A,,Clear,270,2013-10-21 10:30:00
12:00 PM,75.2,57.2,53,30.09,-9999.0,Variable,2.3,-,N/A,,Clear,0,2013-10-21 11:00:00
12:30 PM,77.0,57.2,50,30.09,-9999.0,Variable,2.3,-,N/A,,Clear,0,2013-10-21 11:30:00
1:00 PM,79,56,34,29.99,6,SE,3.5,,,,Clear,140,2013-10-21 12:00:00
1:00 PM,78.8,55.4,44,30.06,-9999.0,SE,3.5,-,N/A,,Clear,140,2013-10-21 12:00:00
1:30 PM,80.6,53.6,39,30.06,-9999.0,SSE,3.5,-,N/A,,Clear,150,2013-10-21 12:30:00
2:00 PM,84.2,53.6,35,30.04,-9999.0,Variable,1.2,-,N/A,,Clear,0,2013-10-21 13:00:00
2:30 PM,84.2,51.8,33,30.04,-9999.0,NNW,4.6,-,N/A,,Clear,340,2013-10-21 13:30:00
3:00 PM,84.2,53.6,35,30.04,-9999.0,WNW,8.1,-,N/A,,Clear,300,2013-10-21 14:00:00
3:30 PM,84.2,55.4,37,30.01,-9999.0,WNW,6.9,-,N/A,,Clear,300,2013-10-21 14:30:00
4:00 PM,84,55,27,29.93,6,NW,6.9,,,,Clear,310,2013-10-21 15:00:00
4:30 PM,84.2,55.4,37,30.01,-9999.0,WNW,9.2,-,N/A,,Clear,290,2013-10-21 15:30:00
5:00 PM,84.2,53.6,35,30.01,-9999.0,West,10.4,-,N/A,,Clear,280,2013-10-21 16:00:00
5:30 PM,82.4,53.6,37,30.01,-9999.0,WNW,9.2,-,N/A,,Clear,290,2013-10-21 16:30:00
6:00 PM,82.4,53.6,37,30.04,-9999.0,WNW,10.4,-,N/A,,Clear,290,2013-10-21 17:00:00
6:30 PM,80.6,53.6,39,30.04,-9999.0,WNW,8.1,-,N/A,,Clear,290,2013-10-21 17:30:00
7:00 PM,78,53,32,29.96,6,West,5.8,,,,Clear,270,2013-10-21 18:00:00
7:00 PM,78.8,53.6,42,30.04,-9999.0,West,6.9,-,N/A,,Clear,270,2013-10-21 18:00:00
7:30 PM,77.0,53.6,44,30.04,-9999.0,West,4.6,-,N/A,,Clear,260,2013-10-21 18:30:00
8:00 PM,75.2,55.4,50,30.06,-9999.0,West,11.5,-,N/A,,Clear,280,2013-10-21 19:00:00
8:30 PM,73.4,53.6,50,30.06,-9999.0,West,10.4,-,N/A,,Clear,280,2013-10-21 19:30:00
9:00 PM,71.6,53.6,53,30.09,-9999.0,West,9.2,-,N/A,,Clear,270,2013-10-21 20:00:00
9:30 PM,68.0,51.8,56,30.09,-9999.0,WSW,6.9,-,N/A,,Clear,250,2013-10-21 20:30:00
10:00 PM,68,52,46,30.07,6,WSW,6.9,,,,Clear,240,2013-10-21 21:00:00
10:00 PM,68.0,51.8,56,30.12,-9999.0,WSW,6.9,-,N/A,,Clear,240,2013-10-21 21:00:00
10:30 PM,66.2,51.8,60,30.12,-9999.0,WSW,5.8,-,N/A,,Clear,240,2013-10-21 21:30:00
11:00 PM,66.2,51.8,60,30.12,-9999.0,SW,5.8,-,N/A,,Clear,230,2013-10-21 22:00:00
11:30 PM,66.2,53.6,64,30.12,-9999.0,SW,5.8,-,N/A,,Clear,220,2013-10-21 22:30:00